Tafton, PA

4:27 PM EST on January 25, 2015 (GMT -0500)
Spinnlers Point | Change Station
CLOSE
Current Station
Personal Weather Station
Location: Tafton, PA
Elevation: 1234 ft
Nearby Weather Stations
Active Advisory: Winter Storm Watch

Elev 1234 ft 41.43 °N, 75.19 °W | Updated 3 seconds ago

Clear
Clear
26.8 °F
Feels Like 27 °F
N
1.6
Wind Variable Wind from SW
Gusts 6.0 mph

Today
High -- | Low -- °F
--% Chance of Precip.
Yesterday
High -- | Low -- °F
Precip. -- in
7:18 AM 5:07 PM
Waxing Crescent, 36% visible
Pressure 29.81 in
Visibility 10.0 miles
Clouds Clear
Windchill 27 °F
Dew Point 7 °F
Humidity 42%
Rainfall 0.00 in
Snow Depth Not available.
UV 1 out of 12
Pollen .10 out of 12
Air Quality Not available.
Flu Activity Not available.
METAR KMPO 252053Z AUTO 32008KT 10SM CLR M02/M13 A2975 RMK AO2 SLP095 T10221133 53005

More Conditions Fewer Conditions

Pressure 29.81 in
Visibility 10.0 miles
Clouds Clear
Windchill 27 °F
Dew Point 7 °F
Humidity 42%
Rainfall 0.00 in
Snow Depth Not available.
UV 1 out of 12
Pollen .10 out of 12
Air Quality Not available.
Flu Activity Not available.
METAR KMPO 252053Z AUTO 32008KT 10SM CLR M02/M13 A2975 RMK AO2 SLP095 T10221133 53005

More Conditions Fewer Conditions

10-Day Weather Forecast

Almanac

Astronomy

Jan. 25, 2015 Rise Set
Actual Time
Civil Twilight
Nautical Twilight
Astronomical Twilight
Moon
Length of Visible Light
Length of Day
Tomorrow will be .
, % of the Moon is Illuminated

Today's Extremes

State Highs State Lows

Community

WunderPhotos

Upload Photos

1,790,052 photos uploaded!

WunderBlogs® & News

Nearby

Air Quality

  Air Quality AQ Index Pollutant
Not available.

Snow Depth

Station Depth Elevation

Earthquake Activity

City Distance Mag. Time & Date
Minimum magnitude displayed is 2.5.

Coastal Water Temperatures

Place Temperature

Nearby Weather Stations